Terminal Aerodrome Forecast
Issued by NWS Mobile, AL

Home | Current Version | Previous Version | Text Only | Print | Product List | Glossary On
Versions: 1 2 3 4 5 6 7 8 9 10 11 12 13 14 15 16 17
000
FTUS44 KMOB 261250 AAA
TAFPNS
TAF AMD
KPNS 261250Z 2613/2712 16008KT P6SM SCT040
     FM261400 18008KT P6SM VCSH SCT025 BKN250
     FM270400 16005KT 4SM BR BKN002=

USA.gov is the U.S. government's official web portal to all federal, state and local government web resources and services.